createdAt,value
2022-11-21T22:13:23.328Z,45.98
2022-11-21T22:15:55.450Z,44.84
2022-11-21T22:18:23.307Z,45.14
2022-11-21T22:20:51.699Z,44.02
2022-11-21T22:23:20.771Z,43.63
2022-11-21T22:25:48.866Z,43.22
2022-11-21T22:28:16.583Z,43.02
2022-11-21T22:30:54.041Z,42.18
2022-11-21T22:33:21.832Z,42.04
2022-11-21T22:35:50.141Z,41.66
2022-11-21T22:38:18.358Z,41.83
2022-11-21T22:40:49.325Z,41.64
2022-11-21T22:43:17.105Z,40.83
2022-11-21T22:45:45.540Z,40.72
2022-11-21T22:48:14.729Z,40.10
2022-11-21T22:50:45.969Z,40.20
2022-11-21T22:53:13.687Z,40.18
2022-11-21T22:55:41.427Z,40.58
2022-11-21T22:58:09.205Z,40.35
2022-11-21T23:00:36.961Z,40.03
2022-11-21T23:03:04.696Z,40.19
2022-11-21T23:05:32.440Z,39.71
2022-11-21T23:08:00.336Z,40.07
2022-11-21T23:10:28.107Z,39.58
2022-11-21T23:12:55.897Z,39.07
2022-11-21T23:15:23.517Z,40.02
2022-11-21T23:17:52.731Z,39.83
2022-11-21T23:20:20.397Z,41.44
2022-11-21T23:22:48.143Z,40.00
2022-11-21T23:25:16.630Z,39.23
2022-11-21T23:27:44.393Z,38.73
2022-11-21T23:30:12.523Z,38.79
2022-11-21T23:32:40.371Z,39.07
2022-11-21T23:35:08.736Z,38.28
2022-11-21T23:37:36.454Z,38.39
2022-11-21T23:40:04.699Z,38.05
2022-11-21T23:42:32.459Z,38.83
2022-11-21T23:45:01.446Z,38.34
2022-11-21T23:47:29.188Z,38.06
2022-11-21T23:49:56.910Z,37.91
2022-11-21T23:52:24.778Z,37.99
2022-11-21T23:54:56.035Z,38.19
2022-11-21T23:57:24.054Z,37.94
2022-11-21T23:59:51.815Z,37.49
